KGTB

Wheeler-Sack AAF Airport

Fort Drum, New York, USA
METAR KGTB 220356Z AUTO 27004KT 10SM CLR M20/M25 A3045 RMK AO2 SLP334 T11971254
Observed Flight Rules
Jan-22 @ 03:56 UTC (54 minutes ago) Visual Flight Rules
Wind Visibility Clouds
270° at 4 knots 10 miles
  • Clear skies
Temperatures Readings
Current -20°C / -4°F
Dewpoint -25°C / -13°F
Humidity 65%
Altimeter 30.45" Hg
Pressure 1033.4 hPa
Elevation 207
METAR KGTB 220356Z AUTO 27004KT 10SM CLR M20/M25 A3045 RMK AO2 SLP334 T11971254
Observed Flight Rules
Jan-22 @ 03:56 UTC
(54 minutes ago)
VFR
Wind Visibility
270° at 4 knots 10 miles
Clouds
  • Clear skies
Temperature Dewpoint
-20°C / -4°F -25°C / -13°F
Humidity Altimeter Pressure
65% 30.45" Hg 1033.4 hPa